Time;durP1;ratioP1;P1;durP2;ratioP2;P2;SDS_P1;SDS_P2;PMS_P1;PMS_P2;Temp;Humidity;BMP_temperature;BMP_pressure;BME280_temperature;BME280_humidity;BME280_pressure;Samples;Min_cycle;Max_cycle;Signal;HPM_P1;HPM_P2
2023/05/16 00:00:40;;;;;;;22.90;20.00;;;;;;;15.23;67.47;99894.63;10193160;28;20678;-71
2023/05/16 00:05:42;;;;;;;21.45;19.08;;;;;;;15.29;67.77;99902.03;10226195;28;20560;-72
2023/05/16 00:10:43;;;;;;;22.77;20.35;;;;;;;15.41;68.36;99912.47;10199592;28;20063;-69
2023/05/16 00:15:44;;;;;;;23.40;20.20;;;;;;;15.43;67.69;99905.91;10194182;28;20070;-70
2023/05/16 00:20:47;;;;;;;21.88;19.55;;;;;;;15.44;67.55;99910.28;10194040;28;20059;-69
2023/05/16 00:25:48;;;;;;;23.58;18.80;;;;;;;15.42;67.50;99896.22;10224249;28;20199;-69
2023/05/16 00:30:49;;;;;;;21.13;18.92;;;;;;;15.39;67.42;99896.53;10194790;28;20134;-71
2023/05/16 00:35:52;;;;;;;21.27;18.98;;;;;;;15.31;68.14;99901.88;10195167;28;20147;-71
2023/05/16 00:40:53;;;;;;;20.08;18.08;;;;;;;15.36;66.84;99910.28;10195857;28;20083;-70
2023/05/16 00:45:56;;;;;;;19.50;17.38;;;;;;;15.35;67.74;99903.22;10176760;28;20798;-71
2023/05/16 00:50:59;;;;;;;19.73;17.65;;;;;;;15.32;66.93;99900.88;10228420;28;20625;-70
2023/05/16 00:56:00;;;;;;;18.42;16.60;;;;;;;15.20;66.93;99887.75;10202511;28;20054;-69
2023/05/16 01:01:06;;;;;;;19.60;17.67;;;;;;;15.19;66.99;99898.63;10196830;28;20134;-71
2023/05/16 01:06:08;;;;;;;19.17;17.23;;;;;;;15.11;67.02;99891.41;10199035;28;20297;-71
2023/05/16 01:11:29;;;;;;;18.27;15.98;;;;;;;14.62;67.05;99816.16;10197929;28;20052;-71
2023/05/16 01:16:58;;;;;;;19.00;16.38;;;;;;;14.88;67.12;99877.75;10191307;28;20790;-73
2023/05/16 01:22:32;;;;;;;17.58;15.77;;;;;;;14.85;68.50;99907.56;10192558;28;20164;-70
2023/05/16 01:27:34;;;;;;;;;;;;;;;15.07;67.68;99921.38;10187600;28;20051;-71
2023/05/16 01:32:36;;;;;;;16.17;14.52;;;;;;;14.68;69.04;99874.47;10195010;28;20013;-71
2023/05/16 01:37:47;;;;;;;18.88;15.55;;;;;;;15.02;67.98;99914.66;10193397;28;20105;-72
2023/05/16 01:42:53;;;;;;;16.50;14.90;;;;;;;15.02;67.73;99919.19;10207614;28;20146;-70
2023/05/16 01:48:04;;;;;;;18.75;14.90;;;;;;;15.04;67.45;99911.81;10191110;28;21024;-70
2023/05/16 01:53:10;;;;;;;17.50;14.13;;;;;;;14.85;68.06;99886.94;10194454;28;20062;-70
2023/05/16 01:58:17;;;;;;;14.82;13.38;;;;;;;14.95;68.84;99913.63;10192738;28;20062;-71
2023/05/16 02:03:19;;;;;;;14.82;13.43;;;;;;;15.01;67.81;99907.63;10191227;28;20059;-72
2023/05/16 02:08:20;;;;;;;14.85;13.45;;;;;;;14.87;68.46;99920.78;10197908;28;20044;-70
2023/05/16 02:13:22;;;;;;;14.68;13.27;;;;;;;14.90;68.71;99920.47;10192432;28;20183;-69
2023/05/16 02:18:23;;;;;;;17.00;15.45;;;;;;;14.93;67.88;99920.97;10193142;28;20080;-71
2023/05/16 02:23:24;;;;;;;18.40;14.93;;;;;;;14.82;67.91;99908.72;10190759;28;20047;-70
2023/05/16 02:28:26;;;;;;;18.90;15.93;;;;;;;14.84;68.67;99922.78;10192578;28;20059;-73
2023/05/16 02:33:27;;;;;;;18.92;15.57;;;;;;;14.81;69.21;99928.44;10194131;28;20063;-71
2023/05/16 02:38:29;;;;;;;17.45;15.43;;;;;;;14.72;70.14;99918.69;10192337;28;20726;-71
2023/05/16 02:43:30;;;;;;;18.88;16.98;;;;;;;14.75;70.35;99921.06;10195432;28;20047;-69
2023/05/16 02:48:32;;;;;;;17.65;15.95;;;;;;;14.74;70.15;99930.13;10192268;28;20118;-68
2023/05/16 02:53:33;;;;;;;16.63;14.88;;;;;;;14.72;70.87;99939.28;10220783;28;20063;-71
2023/05/16 02:58:34;;;;;;;18.20;16.48;;;;;;;14.67;70.16;99931.75;10183476;28;20059;-69
2023/05/16 03:03:36;;;;;;;19.05;17.05;;;;;;;14.60;70.90;99926.13;10204298;28;20169;-69
2023/05/16 03:08:38;;;;;;;16.92;15.30;;;;;;;14.45;70.63;99904.44;10190038;28;20859;-71
2023/05/16 03:13:40;;;;;;;18.23;16.30;;;;;;;14.67;71.11;99947.81;10191861;28;20601;-72
2023/05/16 03:18:42;;;;;;;20.38;18.27;;;;;;;14.63;71.01;99949.13;10192287;28;20054;-72
2023/05/16 03:23:43;;;;;;;17.77;15.95;;;;;;;14.60;71.22;99938.69;10193437;28;20085;-69
2023/05/16 03:28:44;;;;;;;19.85;16.42;;;;;;;14.52;71.48;99955.53;10190651;28;20134;-71
2023/05/16 03:33:46;;;;;;;18.77;16.83;;;;;;;14.47;71.15;99944.44;10193432;28;20171;-68
2023/05/16 03:38:47;;;;;;;17.30;15.45;;;;;;;14.31;71.69;99954.03;10203452;28;20163;-72
2023/05/16 03:43:49;;;;;;;18.27;16.48;;;;;;;14.21;72.72;99961.31;10205539;28;20059;-68
2023/05/16 03:48:50;;;;;;;18.60;16.60;;;;;;;14.29;71.51;99953.38;10206881;28;20134;-71
2023/05/16 03:53:51;;;;;;;20.63;17.67;;;;;;;14.16;72.70;99947.56;10202519;28;20055;-71
2023/05/16 03:58:53;;;;;;;19.90;17.90;;;;;;;13.78;72.10;99942.38;10205635;28;20055;-72
2023/05/16 04:03:54;;;;;;;20.13;16.88;;;;;;;14.03;72.50;99945.25;10206753;28;20058;-72
2023/05/16 04:08:55;;;;;;;20.17;17.58;;;;;;;13.92;73.04;99972.25;10206959;28;20055;-71
2023/05/16 04:13:58;;;;;;;17.38;15.45;;;;;;;13.87;73.77;99956.66;10198993;28;20142;-68
2023/05/16 04:18:59;;;;;;;17.30;14.70;;;;;;;13.96;73.93;99960.25;10207925;28;20173;-70
2023/05/16 04:24:01;;;;;;;16.38;13.95;;;;;;;13.86;73.30;99963.00;10202158;28;20122;-68
2023/05/16 04:29:02;;;;;;;17.90;14.48;;;;;;;13.87;73.38;99977.22;10202454;28;20066;-68
2023/05/16 04:34:04;;;;;;;14.95;12.68;;;;;;;13.77;73.50;99975.44;10182518;28;20163;-70
2023/05/16 04:39:07;;;;;;;16.75;13.60;;;;;;;13.75;74.55;99989.97;10189582;28;20231;-69
2023/05/16 04:44:10;;;;;;;15.35;13.32;;;;;;;14.18;73.45;99988.38;10192994;28;20062;-68
2023/05/16 04:49:11;;;;;;;14.27;12.15;;;;;;;14.31;72.22;99983.50;10187750;28;20106;-67
2023/05/16 04:54:13;;;;;;;9.80;8.82;;;;;;;14.10;71.83;99981.13;10188731;28;20047;-67
2023/05/16 04:59:14;;;;;;;8.77;7.90;;;;;;;14.36;71.42;99999.09;10186578;28;20170;-67
2023/05/16 05:04:16;;;;;;;10.55;7.22;;;;;;;14.10;72.25;99997.19;10189566;28;20059;-64
2023/05/16 05:09:18;;;;;;;7.28;6.55;;;;;;;14.27;71.79;100006.19;10186118;28;20052;-68
2023/05/16 05:14:20;;;;;;;6.55;5.70;;;;;;;14.28;71.40;100015.09;10187831;28;20800;-67
2023/05/16 05:19:21;;;;;;;6.85;5.38;;;;;;;14.34;71.15;100025.19;10187729;28;20070;-66
2023/05/16 05:24:23;;;;;;;6.55;4.65;;;;;;;14.50;70.94;100033.38;10186726;28;20047;-68
2023/05/16 05:29:25;;;;;;;4.85;3.88;;;;;;;14.55;70.24;100040.94;10188978;28;20052;-66
2023/05/16 05:34:26;;;;;;;3.45;3.15;;;;;;;14.55;70.71;100040.09;10191126;28;20056;-69
2023/05/16 05:39:27;;;;;;;6.47;3.55;;;;;;;14.30;71.14;100047.91;10188207;28;20157;-68
2023/05/16 05:44:29;;;;;;;3.70;3.13;;;;;;;14.41;70.66;100038.78;10188866;28;20426;-70
2023/05/16 05:49:31;;;;;;;4.55;4.05;;;;;;;14.25;70.68;100051.03;10193864;28;20059;-71
2023/05/16 05:54:32;;;;;;;4.47;3.78;;;;;;;14.13;70.95;100055.75;10199861;28;20534;-71
2023/05/16 05:59:34;;;;;;;2.65;2.15;;;;;;;14.17;67.90;100071.53;10200906;28;20247;-71
2023/05/16 06:04:35;;;;;;;0.98;0.70;;;;;;;13.81;65.72;100068.78;10203695;28;20056;-69
2023/05/16 06:09:37;;;;;;;1.10;0.40;;;;;;;13.95;65.78;100081.66;10187535;28;20043;-69
2023/05/16 06:14:38;;;;;;;1.00;0.40;;;;;;;14.03;65.52;100084.41;10185328;28;20125;-70
2023/05/16 06:19:40;;;;;;;3.50;2.05;;;;;;;13.80;67.62;100084.00;10182413;28;20421;-69
2023/05/16 06:24:41;;;;;;;2.38;2.03;;;;;;;13.92;69.15;100104.22;10203557;28;20086;-72
2023/05/16 06:29:43;;;;;;;6.13;2.70;;;;;;;13.93;70.18;100111.25;10184545;28;20167;-68
2023/05/16 06:34:44;;;;;;;3.22;2.38;;;;;;;13.88;70.27;100107.34;10216880;28;20721;-69
2023/05/16 06:39:46;;;;;;;2.78;2.50;;;;;;;14.12;69.70;100125.50;10182956;28;20069;-69
2023/05/16 06:44:47;;;;;;;2.85;2.55;;;;;;;14.11;69.29;100124.69;10175387;28;20109;-70
2023/05/16 06:49:49;;;;;;;3.25;2.40;;;;;;;14.10;69.42;100128.34;10206780;28;20058;-69
2023/05/16 06:54:51;;;;;;;2.50;2.20;;;;;;;14.09;68.78;100132.00;10197158;28;20059;-68
2023/05/16 06:59:53;;;;;;;2.35;2.13;;;;;;;14.18;69.07;100142.81;10185854;28;20163;-69
2023/05/16 07:04:54;;;;;;;3.00;2.30;;;;;;;14.06;69.34;100134.97;10185551;28;20855;-68
2023/05/16 07:09:55;;;;;;;4.28;1.95;;;;;;;14.05;68.98;100157.41;10183925;28;20066;-67
2023/05/16 07:14:57;;;;;;;2.88;1.83;;;;;;;14.21;67.99;100166.59;10184669;28;20444;-69
2023/05/16 07:19:58;;;;;;;2.08;1.40;;;;;;;13.77;69.04;100168.06;10182636;28;20550;-69
2023/05/16 07:25:04;;;;;;;2.00;1.17;;;;;;;13.75;69.59;100161.16;10199100;28;20138;-70
2023/05/16 07:30:08;;;;;;;1.63;0.70;;;;;;;13.97;68.38;100170.66;10187062;28;20637;-68
2023/05/16 07:35:10;;;;;;;0.98;0.60;;;;;;;13.90;68.45;100175.78;10184634;28;20103;-69
2023/05/16 07:40:12;;;;;;;0.60;0.35;;;;;;;14.03;68.35;100178.09;10183057;28;20102;-69
2023/05/16 07:45:13;;;;;;;0.25;0.10;;;;;;;14.01;66.41;100192.63;10213837;28;20068;-70
2023/05/16 07:50:15;;;;;;;0.80;0.30;;;;;;;13.87;66.50;100207.31;10179948;28;20273;-70
2023/05/16 07:55:16;;;;;;;1.77;0.20;;;;;;;13.76;67.90;100198.47;10185363;28;20058;-69
2023/05/16 08:00:19;;;;;;;0.88;0.08;;;;;;;13.73;67.94;100222.84;10182203;28;20100;-70
2023/05/16 08:05:20;;;;;;;0.75;0.30;;;;;;;13.60;67.51;100235.66;10183344;28;20047;-68
2023/05/16 08:10:25;;;;;;;0.50;0.20;;;;;;;13.63;66.27;100247.91;10181140;28;20059;-68
2023/05/16 08:15:27;;;;;;;0.85;0.10;;;;;;;13.21;67.02;100259.72;10183628;28;20163;-69
2023/05/16 08:20:29;;;;;;;1.77;0.30;;;;;;;13.27;66.12;100267.22;10184167;28;20058;-67
2023/05/16 08:25:30;;;;;;;1.17;0.30;;;;;;;13.22;65.48;100272.13;10220293;28;20051;-67
2023/05/16 08:30:32;;;;;;;0.82;0.32;;;;;;;13.35;65.21;100280.75;10190950;28;20054;-67
2023/05/16 08:35:34;;;;;;;2.85;0.80;;;;;;;13.19;64.67;100270.56;10191410;28;20059;-67
2023/05/16 08:40:35;;;;;;;2.67;0.57;;;;;;;13.15;63.74;100276.34;10214277;28;20510;-68
2023/05/16 08:45:38;;;;;;;1.65;0.55;;;;;;;13.24;63.58;100303.09;10192399;28;20074;-69
2023/05/16 08:50:41;;;;;;;2.03;0.75;;;;;;;13.27;63.96;100300.13;10189556;28;20059;-68
2023/05/16 08:55:44;;;;;;;2.70;0.60;;;;;;;13.42;63.89;100289.03;10191087;28;20055;-71
2023/05/16 09:00:46;;;;;;;1.23;0.93;;;;;;;13.38;63.93;100293.81;10191940;28;20067;-68
2023/05/16 09:05:48;;;;;;;1.77;0.80;;;;;;;13.54;64.03;100297.75;10194643;28;20059;-67
2023/05/16 09:10:50;;;;;;;3.65;1.08;;;;;;;13.68;62.99;100308.03;10217410;28;20086;-68
2023/05/16 09:16:11;;;;;;;2.60;0.93;;;;;;;13.52;63.48;100307.75;10219500;28;20056;-66
2023/05/16 09:21:14;;;;;;;1.30;0.90;;;;;;;13.37;64.30;100291.28;10191242;28;20071;-66
2023/05/16 09:26:17;;;;;;;3.17;1.25;;;;;;;13.43;64.84;100304.09;10190380;28;20071;-67
2023/05/16 09:31:25;;;;;;;3.95;1.13;;;;;;;13.35;65.19;100307.47;10186754;28;20095;-67
2023/05/16 09:36:27;;;;;;;2.53;1.48;;;;;;;13.47;64.34;100296.66;10188285;28;20781;-66
2023/05/16 09:41:33;;;;;;;2.28;1.10;;;;;;;13.18;64.69;100313.47;10191272;28;20137;-66
2023/05/16 09:46:36;;;;;;;5.25;1.83;;;;;;;13.48;64.76;100298.31;10191731;28;20479;-67
2023/05/16 09:51:40;;;;;;;2.10;1.07;;;;;;;13.77;63.46;100309.84;10184819;28;20537;-66
2023/05/16 09:56:49;;;;;;;2.17;0.90;;;;;;;13.63;62.23;100309.44;10191703;28;20063;-69
2023/05/16 10:01:51;;;;;;;2.72;1.15;;;;;;;13.61;61.18;100314.94;10203360;28;20047;-67
2023/05/16 10:06:57;;;;;;;2.95;0.80;;;;;;;13.90;60.50;100304.19;10218047;28;20193;-66
2023/05/16 10:12:05;;;;;;;3.17;0.90;;;;;;;13.86;59.22;100301.97;10190757;28;20206;-67
2023/05/16 10:17:11;;;;;;;1.90;0.70;;;;;;;13.84;58.04;100298.56;10188375;28;20070;-68
2023/05/16 10:22:15;;;;;;;2.70;1.00;;;;;;;13.66;58.24;100311.81;10190667;28;20058;-66
2023/05/16 10:27:17;;;;;;;3.83;1.58;;;;;;;13.61;57.79;100312.25;10189485;28;20059;-68
2023/05/16 10:32:22;;;;;;;3.83;2.35;;;;;;;13.79;56.96;100307.03;10188181;28;20417;-68
2023/05/16 10:37:24;;;;;;;4.22;1.25;;;;;;;13.88;56.68;100289.28;10188079;28;20062;-68
2023/05/16 10:42:25;;;;;;;4.78;1.40;;;;;;;13.93;56.21;100311.94;10188716;28;20686;-67
2023/05/16 10:47:27;;;;;;;2.42;1.17;;;;;;;14.14;55.72;100305.53;10187607;28;20059;-67
2023/05/16 10:52:34;;;;;;;5.55;1.33;;;;;;;14.23;55.90;100309.19;10186045;28;20058;-67
2023/05/16 10:57:35;;;;;;;6.97;1.65;;;;;;;14.17;54.77;100291.03;10186513;28;20087;-67
2023/05/16 11:02:40;;;;;;;9.00;1.92;;;;;;;14.02;54.57;100299.53;10186207;28;20066;-68
2023/05/16 11:07:42;;;;;;;4.50;1.40;;;;;;;14.18;54.72;100311.47;10202494;28;20043;-66
2023/05/16 11:12:47;;;;;;;5.63;1.67;;;;;;;14.29;53.33;100324.66;10204046;28;20530;-66
2023/05/16 11:18:02;;;;;;;2.15;0.90;;;;;;;14.40;52.02;100324.50;10213633;28;20104;-67
2023/05/16 11:23:15;;;;;;;2.97;0.63;;;;;;;14.53;51.22;100326.81;10182478;28;20066;-67
2023/05/16 11:28:21;;;;;;;2.28;0.85;;;;;;;14.46;50.01;100321.22;10240881;28;20294;-66
2023/05/16 11:33:23;;;;;;;2.55;1.20;;;;;;;14.28;49.13;100298.88;10223725;28;20084;-67
2023/05/16 11:38:26;;;;;;;3.72;1.27;;;;;;;14.50;48.34;100322.63;10206097;28;20606;-67
2023/05/16 11:43:28;;;;;;;3.35;1.48;;;;;;;14.49;49.41;100299.50;10221433;28;20137;-68
2023/05/16 11:48:30;;;;;;;3.53;0.85;;;;;;;14.60;48.33;100329.75;10235690;28;20446;-67
2023/05/16 11:53:37;;;;;;;3.22;0.93;;;;;;;14.64;48.45;100312.44;10199680;28;20089;-67
2023/05/16 11:58:38;;;;;;;3.40;0.93;;;;;;;14.91;47.46;100341.06;10223848;28;20183;-67
2023/05/16 12:03:40;;;;;;;3.38;1.10;;;;;;;15.09;47.34;100313.47;10211116;28;20138;-68
2023/05/16 12:08:49;;;;;;;2.65;0.70;;;;;;;15.81;47.02;100311.63;10228671;28;20145;-68
2023/05/16 12:13:51;;;;;;;2.65;1.17;;;;;;;16.49;45.03;100312.69;10227477;28;20512;-68
2023/05/16 12:18:53;;;;;;;4.60;0.95;;;;;;;16.98;44.91;100300.47;10228268;28;20105;-68
2023/05/16 12:23:57;;;;;;;8.32;1.52;;;;;;;17.31;42.35;100306.78;10244833;28;20058;-66
2023/05/16 12:29:02;;;;;;;;;;;;;;;17.36;38.71;100308.97;10216912;28;20408;-67
2023/05/16 12:34:03;;;;;;;2.72;0.80;;;;;;;17.12;40.79;100310.59;10216211;28;19937;-67
2023/05/16 12:39:04;;;;;;;3.55;0.60;;;;;;;16.74;40.54;100269.81;10243170;28;20141;-67
2023/05/16 12:44:12;;;;;;;1.73;0.73;;;;;;;17.19;38.84;100295.50;10229146;28;20546;-67
2023/05/16 12:49:13;;;;;;;5.43;0.95;;;;;;;17.54;39.15;100312.34;10212177;28;20071;-67
2023/05/16 12:54:15;;;;;;;3.03;0.73;;;;;;;17.63;38.64;100308.63;10224568;28;20563;-68
2023/05/16 12:59:18;;;;;;;2.75;0.90;;;;;;;17.54;38.81;100298.88;10216503;28;20058;-68
2023/05/16 13:04:21;;;;;;;3.87;0.80;;;;;;;17.64;39.18;100326.47;10235774;28;20232;-67
2023/05/16 13:09:23;;;;;;;3.73;1.20;;;;;;;17.61;38.47;100313.34;10230723;28;20145;-68
2023/05/16 13:14:24;;;;;;;1.83;0.40;;;;;;;17.77;37.59;100317.03;10243649;28;20047;-68
2023/05/16 13:19:26;;;;;;;8.68;1.05;;;;;;;17.74;35.48;100325.47;10233514;28;20169;-69
2023/05/16 13:24:27;;;;;;;3.05;0.65;;;;;;;17.66;37.33;100313.69;10226361;28;20065;-67
2023/05/16 13:29:29;;;;;;;2.40;0.65;;;;;;;17.81;36.47;100315.69;10225125;28;20157;-67
2023/05/16 13:34:31;;;;;;;3.03;1.30;;;;;;;17.88;36.13;100316.72;10204956;28;20117;-67
2023/05/16 13:39:32;;;;;;;6.32;1.15;;;;;;;17.99;36.96;100334.41;10219446;28;20145;-67
2023/05/16 13:44:33;;;;;;;5.00;0.75;;;;;;;17.98;35.80;100330.84;10224880;28;21183;-65
2023/05/16 13:49:35;;;;;;;1.58;0.32;;;;;;;17.92;36.23;100312.69;10228217;28;20175;-66
2023/05/16 13:54:38;;;;;;;2.03;0.43;;;;;;;17.97;36.26;100321.09;10224245;28;20055;-67
2023/05/16 13:59:39;;;;;;;1.70;0.40;;;;;;;18.04;35.13;100331.19;10208351;28;20046;-68
2023/05/16 14:04:44;;;;;;;2.42;0.57;;;;;;;17.84;35.25;100323.44;10207698;28;20423;-67
2023/05/16 14:09:48;;;;;;;1.73;0.52;;;;;;;17.77;35.77;100328.66;10209498;28;20699;-68
2023/05/16 14:14:49;;;;;;;3.67;0.80;;;;;;;17.90;35.52;100335.44;10226232;28;20113;-67
2023/05/16 14:19:51;;;;;;;3.08;0.93;;;;;;;17.78;34.48;100338.41;10224752;28;20098;-68
2023/05/16 14:24:52;;;;;;;3.05;0.55;;;;;;;17.83;34.67;100330.69;10219612;28;20066;-69
2023/05/16 14:29:54;;;;;;;1.90;0.40;;;;;;;17.87;34.37;100341.94;10207983;28;20450;-69
2023/05/16 14:34:56;;;;;;;3.15;0.98;;;;;;;17.76;35.64;100329.66;10220532;28;20051;-68
2023/05/16 14:39:58;;;;;;;4.47;1.00;;;;;;;17.67;36.33;100342.28;10226896;28;20046;-68
2023/05/16 14:45:00;;;;;;;4.55;0.68;;;;;;;17.45;35.19;100322.25;10223900;28;20195;-67
2023/05/16 14:50:01;;;;;;;2.80;1.25;;;;;;;17.53;35.13;100356.38;10222191;28;20071;-67
2023/05/16 14:55:03;;;;;;;1.92;0.40;;;;;;;17.41;35.84;100325.44;10214293;28;20058;-69
2023/05/16 15:00:06;;;;;;;2.92;0.60;;;;;;;17.47;35.75;100357.06;10215888;28;20059;-70
2023/05/16 15:05:08;;;;;;;1.65;0.35;;;;;;;17.39;35.89;100338.22;10197587;28;20061;-71
2023/05/16 15:10:10;;;;;;;3.70;0.70;;;;;;;17.34;35.11;100346.81;10223931;28;20091;-70
2023/05/16 15:15:12;;;;;;;2.50;0.50;;;;;;;17.37;36.50;100348.28;10204383;28;21024;-71
2023/05/16 15:20:16;;;;;;;2.53;0.70;;;;;;;17.07;36.07;100319.16;10219344;28;20050;-70
2023/05/16 15:25:20;;;;;;;2.75;0.60;;;;;;;17.31;34.77;100361.41;10209089;28;20138;-70
2023/05/16 15:30:22;;;;;;;3.65;1.25;;;;;;;17.31;36.27;100356.03;10223759;28;20141;-72
2023/05/16 15:35:23;;;;;;;3.28;0.98;;;;;;;17.00;35.22;100338.81;10219003;28;20132;-69
2023/05/16 15:40:25;;;;;;;3.85;0.40;;;;;;;16.65;36.04;100346.00;10206652;28;20054;-68
2023/05/16 15:45:27;;;;;;;4.30;0.68;;;;;;;16.71;35.14;100340.84;10221466;28;20475;-68
2023/05/16 15:50:29;;;;;;;2.33;1.10;;;;;;;16.81;34.25;100331.81;10220397;28;20055;-69
2023/05/16 15:55:31;;;;;;;4.80;1.08;;;;;;;16.68;34.05;100326.88;10218737;28;20063;-72
2023/05/16 16:00:32;;;;;;;2.13;0.50;;;;;;;16.85;35.32;100358.22;10211919;28;20055;-69
2023/05/16 16:05:34;;;;;;;2.97;0.30;;;;;;;16.84;35.72;100340.38;10197972;28;20067;-69
2023/05/16 16:10:35;;;;;;;2.78;0.22;;;;;;;16.86;35.45;100334.84;10217030;28;20047;-67
2023/05/16 16:15:38;;;;;;;2.67;1.10;;;;;;;16.88;35.65;100340.97;10218976;28;20142;-68
2023/05/16 16:20:39;;;;;;;2.67;0.65;;;;;;;16.75;35.40;100317.16;10208691;28;20059;-70
2023/05/16 16:25:41;;;;;;;2.25;0.70;;;;;;;16.81;35.16;100346.09;10234217;28;20051;-69
2023/05/16 16:30:43;;;;;;;1.80;0.30;;;;;;;16.84;34.99;100340.38;10220869;28;20054;-71
2023/05/16 16:35:45;;;;;;;1.52;0.25;;;;;;;16.91;34.02;100338.78;10217043;28;20065;-67
2023/05/16 16:40:46;;;;;;;1.50;0.30;;;;;;;16.96;35.31;100344.53;10188104;28;20130;-68
2023/05/16 16:45:48;;;;;;;1.52;0.65;;;;;;;16.84;35.75;100347.63;10209205;28;20054;-70
2023/05/16 16:50:51;;;;;;;2.45;0.50;;;;;;;16.63;37.40;100337.28;10215227;28;20502;-68
2023/05/16 16:55:52;;;;;;;3.63;0.45;;;;;;;16.85;37.64;100325.94;10233099;28;20259;-67
2023/05/16 17:00:53;;;;;;;2.05;0.45;;;;;;;16.91;36.86;100325.31;10230335;28;20672;-69
2023/05/16 17:05:55;;;;;;;4.05;0.90;;;;;;;17.10;37.42;100334.97;10231555;28;20050;-68
2023/05/16 17:10:58;;;;;;;4.82;0.98;;;;;;;17.13;37.61;100329.25;10209787;28;20191;-68
2023/05/16 17:16:00;;;;;;;2.92;0.65;;;;;;;17.13;36.63;100352.63;10231444;28;20051;-69
2023/05/16 17:21:01;;;;;;;1.40;0.50;;;;;;;16.99;37.27;100351.41;10234276;28;20536;-69
2023/05/16 17:26:03;;;;;;;2.75;0.43;;;;;;;16.84;36.64;100351.13;10235868;28;20458;-70
2023/05/16 17:31:04;;;;;;;1.95;0.52;;;;;;;16.58;36.92;100335.09;10228595;28;20062;-67
2023/05/16 17:36:06;;;;;;;2.53;0.40;;;;;;;16.72;38.24;100371.25;10221459;28;20061;-70
2023/05/16 17:41:08;;;;;;;2.08;0.60;;;;;;;16.62;38.21;100382.13;10216125;28;20658;-69
2023/05/16 17:46:09;;;;;;;2.35;0.52;;;;;;;16.55;39.25;100367.66;10224406;28;20059;-69
2023/05/16 17:51:11;;;;;;;2.53;0.52;;;;;;;16.53;39.46;100397.38;10229168;28;20062;-70
2023/05/16 17:56:12;;;;;;;3.55;0.60;;;;;;;16.38;39.44;100362.19;10217103;28;20058;-69
2023/05/16 18:01:14;;;;;;;2.55;0.70;;;;;;;16.28;39.79;100387.47;10224002;28;20062;-69
2023/05/16 18:06:15;;;;;;;1.42;0.45;;;;;;;16.37;40.16;100389.19;10229587;28;20058;-69
2023/05/16 18:11:17;;;;;;;1.50;0.55;;;;;;;16.11;39.46;100365.00;10233835;28;20187;-67
2023/05/16 18:16:19;;;;;;;2.70;0.43;;;;;;;16.23;39.94;100394.16;10231370;28;20046;-67
2023/05/16 18:21:20;;;;;;;1.90;0.40;;;;;;;16.24;40.17;100387.78;10228996;28;20050;-68
2023/05/16 18:26:21;;;;;;;1.92;0.57;;;;;;;16.14;39.58;100388.84;10230867;28;20051;-68
2023/05/16 18:31:23;;;;;;;2.35;0.60;;;;;;;16.05;39.73;100404.09;10232243;28;20066;-69
2023/05/16 18:36:25;;;;;;;3.40;0.50;;;;;;;16.04;39.23;100413.13;10228958;28;20058;-68
2023/05/16 18:41:26;;;;;;;1.42;0.60;;;;;;;15.94;39.21;100423.09;10200445;28;20128;-68
2023/05/16 18:46:28;;;;;;;3.50;0.95;;;;;;;15.75;40.45;100435.66;10231175;28;20051;-69
2023/05/16 18:51:29;;;;;;;3.10;0.70;;;;;;;15.50;41.02;100423.84;10216781;28;20087;-68
2023/05/16 18:56:31;;;;;;;4.25;0.80;;;;;;;15.31;41.28;100448.91;10227642;28;20063;-69
2023/05/16 19:01:32;;;;;;;2.90;0.93;;;;;;;15.36;41.36;100444.81;10222334;28;21074;-69
2023/05/16 19:06:34;;;;;;;2.20;0.73;;;;;;;15.38;41.50;100458.91;10223310;28;20098;-68
2023/05/16 19:11:36;;;;;;;1.83;0.90;;;;;;;15.39;41.27;100467.81;10230136;28;20043;-66
2023/05/16 19:16:37;;;;;;;4.85;0.80;;;;;;;15.32;41.89;100472.91;10225165;28;20131;-69
2023/05/16 19:21:38;;;;;;;1.08;0.65;;;;;;;15.20;42.30;100480.31;10210425;28;20403;-67
2023/05/16 19:26:40;;;;;;;2.45;0.77;;;;;;;15.29;43.04;100497.34;10211171;28;20072;-68
2023/05/16 19:31:41;;;;;;;2.67;0.60;;;;;;;15.13;43.10;100492.63;10226845;28;20764;-68
2023/05/16 19:36:43;;;;;;;5.15;1.00;;;;;;;15.16;43.43;100513.78;10226861;28;20908;-65
2023/05/16 19:41:44;;;;;;;3.80;0.80;;;;;;;15.04;43.02;100517.63;10229710;28;20491;-70
2023/05/16 19:46:53;;;;;;;1.55;0.73;;;;;;;15.02;43.58;100530.34;10209535;28;20776;-70
2023/05/16 19:51:54;;;;;;;2.00;0.93;;;;;;;14.82;43.25;100519.66;10222368;28;20130;-70
2023/05/16 19:56:55;;;;;;;1.65;0.73;;;;;;;14.83;43.16;100540.13;10216313;28;20142;-70
2023/05/16 20:01:58;;;;;;;5.00;1.33;;;;;;;14.81;43.65;100558.16;10225401;28;20170;-70
2023/05/16 20:07:00;;;;;;;3.53;0.70;;;;;;;14.66;43.30;100556.91;10228381;28;20137;-69
2023/05/16 20:12:01;;;;;;;2.55;0.80;;;;;;;14.67;43.70;100575.53;10216459;28;20054;-69
2023/05/16 20:17:03;;;;;;;2.47;0.80;;;;;;;14.52;43.80;100573.38;10224911;28;20055;-69
2023/05/16 20:22:04;;;;;;;2.90;0.80;;;;;;;14.50;44.11;100576.19;10220986;28;20062;-68
2023/05/16 20:27:06;;;;;;;3.65;0.73;;;;;;;14.53;44.20;100599.19;10220681;28;20615;-68
2023/05/16 20:32:07;;;;;;;3.28;0.70;;;;;;;14.45;44.27;100603.41;10229202;28;20275;-69
2023/05/16 20:37:09;;;;;;;2.28;1.10;;;;;;;14.13;45.11;100592.97;10244190;28;20131;-69
2023/05/16 20:42:10;;;;;;;2.63;1.08;;;;;;;14.18;45.31;100600.56;10211578;28;20055;-69
2023/05/16 20:47:12;;;;;;;2.83;1.05;;;;;;;14.17;45.05;100602.38;10229175;28;20403;-69
2023/05/16 20:52:14;;;;;;;2.17;0.90;;;;;;;14.21;45.74;100622.56;10215083;28;20067;-69
2023/05/16 20:57:16;;;;;;;1.80;0.82;;;;;;;14.06;45.57;100614.06;10214732;28;20054;-68
2023/05/16 21:02:17;;;;;;;2.30;1.10;;;;;;;14.08;46.02;100632.66;10226300;28;20066;-68
2023/05/16 21:07:20;;;;;;;1.42;0.90;;;;;;;13.96;46.07;100616.75;10219231;28;20059;-73
2023/05/16 21:12:21;;;;;;;3.80;1.15;;;;;;;14.02;46.16;100635.91;10217986;28;20146;-69
2023/05/16 21:17:23;;;;;;;2.30;0.98;;;;;;;13.75;46.73;100627.50;10221151;28;20061;-67
2023/05/16 21:22:24;;;;;;;2.80;1.10;;;;;;;13.72;47.11;100632.28;10217502;28;20070;-68
2023/05/16 21:27:25;;;;;;;4.80;0.90;;;;;;;13.79;47.54;100647.66;10229618;28;20081;-68
2023/05/16 21:32:30;;;;;;;3.78;1.05;;;;;;;13.78;47.34;100648.66;10227413;28;20137;-69
2023/05/16 21:37:32;;;;;;;5.47;1.20;;;;;;;13.51;48.01;100630.50;10228112;28;20062;-71
2023/05/16 21:42:35;;;;;;;3.28;0.75;;;;;;;13.67;47.32;100654.06;10213025;28;20157;-71
2023/05/16 21:47:36;;;;;;;2.28;1.13;;;;;;;13.57;47.55;100645.16;10231880;28;20078;-70
2023/05/16 21:52:38;;;;;;;3.80;1.20;;;;;;;13.56;47.96;100665.72;10209345;28;20058;-68
2023/05/16 21:57:40;;;;;;;2.85;1.20;;;;;;;13.54;48.19;100661.47;10235358;28;20054;-68
2023/05/16 22:02:41;;;;;;;3.90;1.20;;;;;;;13.49;48.80;100671.72;10237223;28;20054;-67
2023/05/16 22:07:43;;;;;;;2.72;0.70;;;;;;;13.39;48.92;100653.81;10236852;28;20066;-68
2023/05/16 22:12:44;;;;;;;3.53;0.93;;;;;;;13.40;48.95;100668.84;10235639;28;20683;-68
2023/05/16 22:17:46;;;;;;;3.03;0.95;;;;;;;13.13;49.31;100631.09;10218681;28;20056;-67
2023/05/16 22:22:49;;;;;;;3.63;1.10;;;;;;;13.18;49.37;100666.28;10225016;28;20169;-66
2023/05/16 22:27:51;;;;;;;4.75;1.00;;;;;;;13.11;49.79;100667.81;10257526;28;20055;-68
2023/05/16 22:32:53;;;;;;;4.05;1.33;;;;;;;13.09;49.55;100663.44;10225032;28;21663;-67
2023/05/16 22:37:54;;;;;;;3.92;1.05;;;;;;;13.14;50.23;100678.25;10237894;28;20145;-66
2023/05/16 22:42:56;;;;;;;3.65;1.05;;;;;;;13.02;50.20;100661.41;10242167;28;20054;-67
2023/05/16 22:47:57;;;;;;;1.98;0.90;;;;;;;12.91;50.33;100659.66;10241552;28;20140;-67
2023/05/16 22:52:59;;;;;;;5.95;1.55;;;;;;;12.95;50.53;100679.78;10244398;28;20115;-67
2023/05/16 22:58:00;;;;;;;2.05;0.80;;;;;;;12.76;51.08;100661.78;10242639;28;20125;-66
2023/05/16 23:03:02;;;;;;;3.10;1.33;;;;;;;12.85;51.38;100677.03;10234407;28;20054;-66
2023/05/16 23:08:04;;;;;;;3.08;1.05;;;;;;;12.80;51.01;100689.06;10213422;28;20058;-64